Seabourn Quest — C6YZ5 — position and weather

sailwx.info

Track history (hours):
 
Tides and Currents Weather Stations Pressure Air Temp Water Temp Dewpoint Dewpoint Depression Visibility Wind Speed Wind Dir Waves Ship Positions

Seabourn Quest

Last reported at 2018-Jul-22 01:06 UTC. Time now 2018-Jul-22 03:21 UTC.
Position N 55°49' W 006°44'.

Length 198 m; draft 6.7 m.

Type: Ship. MMSI: 311038900.

Date/timePositionNaut miles runAvg speedWind from/ knotsBaromVisibWave heightAir tempDewpointWater temp
2018-Jul-22 01:06N 55°49' W 006°44'212.0
2018-Jul-22 00:57N 55°47' W 006°43'511.8
2018-Jul-22 00:30N 55°42' W 006°42'611.2
2018-Jul-22 00:00N 55°37' W 006°38'611.7
2018-Jul-21 23:30N 55°33' W 006°30'611.6
2018-Jul-21 23:00N 55°29' W 006°22'611.6
2018-Jul-21 22:30N 55°26' W 006°15'611.8
2018-Jul-21 21:59N 55°24' W 006°04'611.0
2018-Jul-21 21:29N 55°20' W 005°58'611.5
2018-Jul-21 21:00N 55°16' W 005°51'1112.1
2018-Jul-21 20:03N 55°14' W 005°31'3810.6
2018-Jul-21 16:24N 55°48' W 004°59'3 8.7
2018-Jul-21 16:00N 55°51' W 005°03'0 0.1
2018-Jul-21 14:58N 55°51' W 005°02'0 0.0
2018-Jul-21 14:25N 55°51' W 005°02'0 0.0
2018-Jul-21 13:28N 55°51' W 005°02'0 0.0
2018-Jul-21 12:55N 55°51' W 005°02'0 0.0
2018-Jul-21 12:22N 55°51' W 005°02'0 0.0
2018-Jul-21 11:46N 55°51' W 005°02'0 0.0
2018-Jul-21 11:07N 55°51' W 005°02'0 0.1
2018-Jul-21 10:58N 55°51' W 005°02'0 0.0
2018-Jul-21 10:01N 55°51' W 005°02'0 0.0
2018-Jul-21 09:40N 55°51' W 005°02'0 0.1
2018-Jul-21 09:13N 55°51' W 005°02'0 0.1
2018-Jul-21 08:55N 55°51' W 005°02'0 0.0
2018-Jul-21 07:07N 55°51' W 005°02'0 0.1
2018-Jul-21 06:58N 55°51' W 005°02'0 0.1
2018-Jul-21 06:29N 55°51' W 005°03'2 4.6
2018-Jul-21 06:00N 55°50' W 004°59'712.5
2018-Jul-21 05:27N 55°43' W 004°59'29 9.8
2018-Jul-21 02:31N 55°15' W 005°12'310.5
2018-Jul-21 02:14N 55°12' W 005°13'510.5
2018-Jul-21 01:45N 55°07' W 005°15'310.8
2018-Jul-21 01:26N 55°04' W 005°17'510.6
2018-Jul-21 00:58N 54°59' W 005°20'5 9.8
2018-Jul-21 00:26N 54°54' W 005°19'4 9.9
2018-Jul-21 00:00N 54°50' W 005°17'510.1
2018-Jul-20 23:30N 54°45' W 005°15'510.4
2018-Jul-20 23:00N 54°40' W 005°12'510.5
2018-Jul-20 22:30N 54°35' W 005°10'510.3
2018-Jul-20 22:00N 54°30' W 005°08'510.3
2018-Jul-20 21:30N 54°25' W 005°05'610.3
2018-Jul-20 20:58N 54°20' W 005°03'108 5.0
2018-Jul-19 23:30N 52°33' W 005°26'815.8
2018-Jul-19 22:59N 52°25' W 005°30'715.5
2018-Jul-19 22:31N 52°18' W 005°33'714.8
2018-Jul-19 22:01N 52°11' W 005°37'714.4
2018-Jul-19 21:31N 52°04' W 005°40'713.6
2018-Jul-19 21:00N 51°57' W 005°43'713.2
2018-Jul-19 20:30N 51°51' W 005°46'713.5
2018-Jul-19 19:59N 51°44' W 005°49'612.3
2018-Jul-19 19:30N 51°38' W 005°49'1213.9
2018-Jul-19 18:39N 51°39' W 005°29'313.4
2018-Jul-19 18:28N 51°39' W 005°25'612.2
2018-Jul-19 18:00N 51°38' W 005°16'510.7
2018-Jul-19 17:31N 51°41' W 005°09'4 8.5
2018-Jul-19 16:59N 51°42' W 005°02'0 0.1
2018-Jul-19 16:29N 51°42' W 005°02'0 0.0
2018-Jul-19 15:58N 51°42' W 005°02'0 0.0
2018-Jul-19 15:25N 51°42' W 005°02'0 0.0
2018-Jul-19 14:55N 51°42' W 005°02'0 0.0
2018-Jul-19 14:25N 51°42' W 005°02'0 0.0
2018-Jul-19 13:25N 51°42' W 005°02'0 0.1
2018-Jul-19 12:55N 51°42' W 005°02'0 0.1
2018-Jul-19 12:28N 51°42' W 005°02'0 0.1
2018-Jul-19 11:55N 51°42' W 005°02'0 0.0
2018-Jul-19 11:25N 51°42' W 005°02'0 0.1
2018-Jul-19 10:58N 51°42' W 005°02'0 0.0
2018-Jul-19 10:25N 51°42' W 005°02'0 0.0
2018-Jul-19 09:55N 51°42' W 005°02'0 0.0
2018-Jul-19 09:28N 51°42' W 005°02'0 0.0
2018-Jul-19 08:55N 51°42' W 005°02'0 0.2
2018-Jul-19 08:30N 51°42' W 005°02'4 8.3
2018-Jul-19 08:00N 51°42' W 005°09'4 7.8
2018-Jul-19 07:30N 51°40' W 005°14'4 7.5
2018-Jul-19 07:00N 51°43' W 005°18'0 0.5
2018-Jul-19 06:31N 51°43' W 005°18'0 0.3
2018-Jul-19 06:00N 51°43' W 005°17'0 0.3
2018-Jul-19 05:24N 51°43' W 005°17'0 0.8
2018-Jul-19 04:58N 51°44' W 005°17'3 5.9
2018-Jul-19 04:30N 51°42' W 005°20'713.9
2018-Jul-19 04:00N 51°35' W 005°23'816.8
2018-Jul-19 03:30N 51°27' W 005°26'3115.7
2018-Jul-19 01:33N 50°57' W 005°38'57 2.9
2018-Jul-18 06:00N 50°05' W 005°01'7 9.7
2018-Jul-18 05:19N 50°04' W 004°51'2 7.9
2018-Jul-18 05:00N 50°03' W 004°47'4 8.4
2018-Jul-18 04:29N 50°02' W 004°40'4 8.3
2018-Jul-18 03:57N 50°02' W 004°33'4 8.3
2018-Jul-18 03:28N 50°02' W 004°27'6 8.3
2018-Jul-18 02:46N 50°01' W 004°18'3 8.4
2018-Jul-18 02:26N 50°01' W 004°14'7 8.4
2018-Jul-18 01:38N 50°01' W 004°03'4 8.4
2018-Jul-18 01:12N 50°01' W 003°58'2 8.4
2018-Jul-18 01:00N 50°01' W 003°55'7 8.4
2018-Jul-18 00:12N 50°01' W 003°45'2 8.4
2018-Jul-18 00:01N 50°01' W 003°42'4 8.4
2018-Jul-17 23:30N 50°01' W 003°36'4 8.3
2018-Jul-17 23:00N 50°01' W 003°29'4 8.3
2018-Jul-17 22:30N 50°01' W 003°23'4 8.4
2018-Jul-17 22:00N 50°01' W 003°16'4 8.4
2018-Jul-17 21:30N 50°01' W 003°10'4 8.3
2018-Jul-17 21:00N 50°01' W 003°03'4 8.3
2018-Jul-17 20:30N 50°01' W 002°57'4 8.3
2018-Jul-17 20:00N 50°02' W 002°50'4 8.3
2018-Jul-17 19:30N 50°03' W 002°44'4 8.3
2018-Jul-17 19:00N 50°04' W 002°38'3 6.9
2018-Jul-17 18:31N 50°05' W 002°33'9 6.4
2018-Jul-17 17:05N 50°07' W 002°19'1 6.6
2018-Jul-17 16:58N 50°07' W 002°18'62 6.5
2018-Jul-17 07:25N 50°24' W 000°45'3 6.4
2018-Jul-17 07:00N 50°24' W 000°41'4 6.4
2018-Jul-17 06:27N 50°25' W 000°35'4 6.9
2018-Jul-17 05:54N 50°27' W 000°30'7 8.4
2018-Jul-17 05:02N 50°28' W 000°19'0 8.4
2018-Jul-17 04:59N 50°29' W 000°18'8 8.2
2018-Jul-17 04:03N 50°31' W 000°06'10 6.5
2018-Jul-17 02:32N 50°33' E 000°09'3 5.9
2018-Jul-17 02:05N 50°34' E 000°13'2 5.8
2018-Jul-17 01:42N 50°34' E 000°16'1 5.8
2018-Jul-17 01:30N 50°35' E 000°18'3 5.8
2018-Jul-17 01:00N 50°36' E 000°22'3 5.8
2018-Jul-17 00:30N 50°36' E 000°27'6 5.8
2018-Jul-16 23:30N 50°38' E 000°35'3 5.7
2018-Jul-16 23:00N 50°40' E 000°39'3 5.7
2018-Jul-16 22:30N 50°41' E 000°43'3 5.7
2018-Jul-16 22:00N 50°43' E 000°46'3 5.7
2018-Jul-16 21:30N 50°45' E 000°50'3 5.7
2018-Jul-16 21:00N 50°46' E 000°54'3 5.8
2018-Jul-16 20:30N 50°48' E 000°57'3 5.8
2018-Jul-16 20:00N 50°50' E 001°01'3 5.8
2018-Jul-16 19:30N 50°51' E 001°05'3 5.8
2018-Jul-16 18:59N 50°54' E 001°08'3 5.8
2018-Jul-16 18:29N 50°56' E 001°11'3 5.8
2018-Jul-16 17:56N 50°58' E 001°15'3 5.9
2018-Jul-16 17:30N 51°00' E 001°17'3 5.4
2018-Jul-16 16:57N 51°03' E 001°20'3 5.7
2018-Jul-16 16:26N 51°05' E 001°21'2 4.3
2018-Jul-16 16:00N 51°07' E 001°19'0 0.0
2018-Jul-16 15:30N 51°07' E 001°19'0 0.0
2018-Jul-16 15:01N 51°07' E 001°19'0 0.0
2018-Jul-16 14:30N 51°07' E 001°19'0 0.0
2018-Jul-16 13:43N 51°07' E 001°19'0 0.0
2018-Jul-16 13:31N 51°07' E 001°19'0 0.0
2018-Jul-16 12:57N 51°07' E 001°19'0 0.0
2018-Jul-16 12:28N 51°07' E 001°19'0 0.0
2018-Jul-16 11:58N 51°07' E 001°19'0 0.0
2018-Jul-16 11:27N 51°07' E 001°19'0 0.0
2018-Jul-16 10:58N 51°07' E 001°19'0 0.0
2018-Jul-16 10:28N 51°07' E 001°19'0 0.0
2018-Jul-16 09:59N 51°07' E 001°19'0 0.0
2018-Jul-16 09:22N 51°07' E 001°19'0 0.0
2018-Jul-16 09:00N 51°07' E 001°19'0 0.0
2018-Jul-16 08:29N 51°07' E 001°19'0 0.0
2018-Jul-16 08:01N 51°07' E 001°19'0 0.0
2018-Jul-16 07:23N 51°07' E 001°19'0 0.0
2018-Jul-16 06:58N 51°07' E 001°19'0 0.0
2018-Jul-16 06:19N 51°07' E 001°19'0 0.0
2018-Jul-16 05:57N 51°07' E 001°19'0 0.0
2018-Jul-16 05:26N 51°07' E 001°19'0 0.0
2018-Jul-16 04:58N 51°07' E 001°19'0 0.0
2018-Jul-16 04:29N 51°07' E 001°19'0 0.5
2018-Jul-16 04:00N 51°07' E 001°19'4 8.4
2018-Jul-16 03:30N 51°08' E 001°26'5 9.7
2018-Jul-16 03:00N 51°06' E 001°33'5 9.7
2018-Jul-16 02:30N 51°01' E 001°31'612.2
2018-Jul-16 02:00N 50°56' E 001°26'612.2
2018-Jul-16 01:30N 50°50' E 001°23'815.4
2018-Jul-16 01:00N 50°43' E 001°21'816.1
2018-Jul-16 00:30N 50°37' E 001°12'816.5
2018-Jul-16 00:00N 50°32' E 001°02'816.5
2018-Jul-15 23:30N 50°29' E 000°49'917.0
2018-Jul-15 23:00N 50°27' E 000°36'917.4
2018-Jul-15 22:30N 50°25' E 000°23'917.6
2018-Jul-15 21:59N 50°22' E 000°09'817.3
2018-Jul-15 21:30N 50°20' W 000°04'918.4
2018-Jul-15 21:00N 50°18' W 000°17'1020.6
2018-Jul-15 20:30N 50°15' W 000°33'1020.3
2018-Jul-15 20:00N 50°13' W 000°48'1019.7
2018-Jul-15 19:30N 50°10' W 001°03'1018.9
2018-Jul-15 19:00N 50°07' W 001°17'1617.7
2018-Jul-15 18:05N 50°03' W 001°42'2612.1
2018-Jul-15 15:54N 49°55' W 002°21'611.4
2018-Jul-15 15:24N 49°54' W 002°29'511.5
2018-Jul-15 15:00N 49°52' W 002°36'611.8
2018-Jul-15 14:30N 49°51' W 002°45'612.3
2018-Jul-15 14:00N 49°50' W 002°54'712.5
2018-Jul-15 13:26N 49°48' W 003°05'613.2
2018-Jul-15 13:00N 49°47' W 003°14'713.5
2018-Jul-15 12:30N 49°48' W 003°24'713.7
2018-Jul-15 12:00N 49°49' W 003°35'713.9
2018-Jul-15 11:29N 49°49' W 003°46'2314.0
2018-Jul-15 09:50N 49°50' W 004°22'1514.9
2018-Jul-15 08:47N 49°51' W 004°46'415.1
2018-Jul-15 08:30N 49°51' W 004°52'811.3
2018-Jul-15 07:46N 49°51' W 005°05'1115.3
2018-Jul-15 07:05N 49°51' W 005°22'116.5
2018-Jul-15 07:00N 49°51' W 005°24'815.7
2018-Jul-15 06:30N 49°52' W 005°36'14013.2
2018-Jul-14 19:53N 52°02' W 006°56'513.7
2018-Jul-14 19:30N 52°08' W 006°57'5 9.5
2018-Jul-14 18:58N 52°13' W 006°56'4 7.2
2018-Jul-14 18:26N 52°16' W 006°60'0 0.0
2018-Jul-14 05:46N 52°16' W 006°59'2 8.6
2018-Jul-14 05:30N 52°14' W 006°57'510.8
2018-Jul-14 05:00N 52°09' W 006°58'4 8.6
2018-Jul-14 04:29N 52°05' W 006°53'5 9.7
2018-Jul-14 04:00N 52°04' W 006°46'5 9.8
2018-Jul-14 03:30N 52°02' W 006°39'713.4
2018-Jul-14 03:00N 52°04' W 006°28'510.9
2018-Jul-14 02:30N 52°05' W 006°20'510.6
2018-Jul-14 02:00N 52°08' W 006°12'510.8
2018-Jul-14 01:30N 52°12' W 006°07'611.1
2018-Jul-14 01:00N 52°17' W 006°02'611.4
2018-Jul-14 00:30N 52°21' W 005°57'611.6
2018-Jul-13 23:57N 52°27' W 005°50'  
Track history (hours):
 
Tides and Currents Weather Stations Pressure Air Temp Water Temp Dewpoint Dewpoint Depression Visibility Wind Speed Wind Dir Waves Ship Positions

Seabourn Quest

Last reported at 2018-Jul-22 01:06 UTC. Time now 2018-Jul-22 03:21 UTC.
Position N 55°49' W 006°44'.

Length 198 m; draft 6.7 m.

Type: Ship. MMSI: 311038900.

Date/timePositionNaut miles runAvg speedWind from/ knotsBaromVisibWave heightAir tempDewpointWater temp
2018-Jul-22 01:06N 55°49' W 006°44'212.0
2018-Jul-22 00:57N 55°47' W 006°43'511.8
2018-Jul-22 00:30N 55°42' W 006°42'611.2
2018-Jul-22 00:00N 55°37' W 006°38'611.7
2018-Jul-21 23:30N 55°33' W 006°30'611.6
2018-Jul-21 23:00N 55°29' W 006°22'611.6
2018-Jul-21 22:30N 55°26' W 006°15'611.8
2018-Jul-21 21:59N 55°24' W 006°04'611.0
2018-Jul-21 21:29N 55°20' W 005°58'611.5
2018-Jul-21 21:00N 55°16' W 005°51'1112.1
2018-Jul-21 20:03N 55°14' W 005°31'3810.6
2018-Jul-21 16:24N 55°48' W 004°59'3 8.7
2018-Jul-21 16:00N 55°51' W 005°03'0 0.1
2018-Jul-21 14:58N 55°51' W 005°02'0 0.0
2018-Jul-21 14:25N 55°51' W 005°02'0 0.0
2018-Jul-21 13:28N 55°51' W 005°02'0 0.0
2018-Jul-21 12:55N 55°51' W 005°02'0 0.0
2018-Jul-21 12:22N 55°51' W 005°02'0 0.0
2018-Jul-21 11:46N 55°51' W 005°02'0 0.0
2018-Jul-21 11:07N 55°51' W 005°02'0 0.1
2018-Jul-21 10:58N 55°51' W 005°02'0 0.0
2018-Jul-21 10:01N 55°51' W 005°02'0 0.0
2018-Jul-21 09:40N 55°51' W 005°02'0 0.1
2018-Jul-21 09:13N 55°51' W 005°02'0 0.1
2018-Jul-21 08:55N 55°51' W 005°02'0 0.0
2018-Jul-21 07:07N 55°51' W 005°02'0 0.1
2018-Jul-21 06:58N 55°51' W 005°02'0 0.1
2018-Jul-21 06:29N 55°51' W 005°03'2 4.6
2018-Jul-21 06:00N 55°50' W 004°59'712.5
2018-Jul-21 05:27N 55°43' W 004°59'29 9.8
2018-Jul-21 02:31N 55°15' W 005°12'310.5
2018-Jul-21 02:14N 55°12' W 005°13'510.5
2018-Jul-21 01:45N 55°07' W 005°15'310.8
2018-Jul-21 01:26N 55°04' W 005°17'510.6
2018-Jul-21 00:58N 54°59' W 005°20'5 9.8
2018-Jul-21 00:26N 54°54' W 005°19'4 9.9
2018-Jul-21 00:00N 54°50' W 005°17'510.1
2018-Jul-20 23:30N 54°45' W 005°15'510.4
2018-Jul-20 23:00N 54°40' W 005°12'510.5
2018-Jul-20 22:30N 54°35' W 005°10'510.3
2018-Jul-20 22:00N 54°30' W 005°08'510.3
2018-Jul-20 21:30N 54°25' W 005°05'610.3
2018-Jul-20 20:58N 54°20' W 005°03'108 5.0
2018-Jul-19 23:30N 52°33' W 005°26'815.8
2018-Jul-19 22:59N 52°25' W 005°30'715.5
2018-Jul-19 22:31N 52°18' W 005°33'714.8
2018-Jul-19 22:01N 52°11' W 005°37'714.4
2018-Jul-19 21:31N 52°04' W 005°40'713.6
2018-Jul-19 21:00N 51°57' W 005°43'713.2
2018-Jul-19 20:30N 51°51' W 005°46'713.5
2018-Jul-19 19:59N 51°44' W 005°49'612.3
2018-Jul-19 19:30N 51°38' W 005°49'1213.9
2018-Jul-19 18:39N 51°39' W 005°29'313.4
2018-Jul-19 18:28N 51°39' W 005°25'612.2
2018-Jul-19 18:00N 51°38' W 005°16'510.7
2018-Jul-19 17:31N 51°41' W 005°09'4 8.5
2018-Jul-19 16:59N 51°42' W 005°02'0 0.1
2018-Jul-19 16:29N 51°42' W 005°02'0 0.0
2018-Jul-19 15:58N 51°42' W 005°02'0 0.0
2018-Jul-19 15:25N 51°42' W 005°02'0 0.0
2018-Jul-19 14:55N 51°42' W 005°02'0 0.0
2018-Jul-19 14:25N 51°42' W 005°02'0 0.0
2018-Jul-19 13:25N 51°42' W 005°02'0 0.1
2018-Jul-19 12:55N 51°42' W 005°02'0 0.1
2018-Jul-19 12:28N 51°42' W 005°02'0 0.1
2018-Jul-19 11:55N 51°42' W 005°02'0 0.0
2018-Jul-19 11:25N 51°42' W 005°02'0 0.1
2018-Jul-19 10:58N 51°42' W 005°02'0 0.0
2018-Jul-19 10:25N 51°42' W 005°02'0 0.0
2018-Jul-19 09:55N 51°42' W 005°02'0 0.0
2018-Jul-19 09:28N 51°42' W 005°02'0 0.0
2018-Jul-19 08:55N 51°42' W 005°02'0 0.2
2018-Jul-19 08:30N 51°42' W 005°02'4 8.3
2018-Jul-19 08:00N 51°42' W 005°09'4 7.8
2018-Jul-19 07:30N 51°40' W 005°14'4 7.5
2018-Jul-19 07:00N 51°43' W 005°18'0 0.5
2018-Jul-19 06:31N 51°43' W 005°18'0 0.3
2018-Jul-19 06:00N 51°43' W 005°17'0 0.3
2018-Jul-19 05:24N 51°43' W 005°17'0 0.8
2018-Jul-19 04:58N 51°44' W 005°17'3 5.9
2018-Jul-19 04:30N 51°42' W 005°20'713.9
2018-Jul-19 04:00N 51°35' W 005°23'816.8
2018-Jul-19 03:30N 51°27' W 005°26'3115.7
2018-Jul-19 01:33N 50°57' W 005°38'57 2.9
2018-Jul-18 06:00N 50°05' W 005°01'7 9.7
2018-Jul-18 05:19N 50°04' W 004°51'2 7.9
2018-Jul-18 05:00N 50°03' W 004°47'4 8.4
2018-Jul-18 04:29N 50°02' W 004°40'4 8.3
2018-Jul-18 03:57N 50°02' W 004°33'4 8.3
2018-Jul-18 03:28N 50°02' W 004°27'6 8.3
2018-Jul-18 02:46N 50°01' W 004°18'3 8.4
2018-Jul-18 02:26N 50°01' W 004°14'7 8.4
2018-Jul-18 01:38N 50°01' W 004°03'4 8.4
2018-Jul-18 01:12N 50°01' W 003°58'2 8.4
2018-Jul-18 01:00N 50°01' W 003°55'7 8.4
2018-Jul-18 00:12N 50°01' W 003°45'2 8.4
2018-Jul-18 00:01N 50°01' W 003°42'4 8.4
2018-Jul-17 23:30N 50°01' W 003°36'4 8.3
2018-Jul-17 23:00N 50°01' W 003°29'4 8.3
2018-Jul-17 22:30N 50°01' W 003°23'4 8.4
2018-Jul-17 22:00N 50°01' W 003°16'4 8.4
2018-Jul-17 21:30N 50°01' W 003°10'4 8.3
2018-Jul-17 21:00N 50°01' W 003°03'4 8.3
2018-Jul-17 20:30N 50°01' W 002°57'4 8.3
2018-Jul-17 20:00N 50°02' W 002°50'4 8.3
2018-Jul-17 19:30N 50°03' W 002°44'4 8.3
2018-Jul-17 19:00N 50°04' W 002°38'3 6.9
2018-Jul-17 18:31N 50°05' W 002°33'9 6.4
2018-Jul-17 17:05N 50°07' W 002°19'1 6.6
2018-Jul-17 16:58N 50°07' W 002°18'62 6.5
2018-Jul-17 07:25N 50°24' W 000°45'3 6.4
2018-Jul-17 07:00N 50°24' W 000°41'4 6.4
2018-Jul-17 06:27N 50°25' W 000°35'4 6.9
2018-Jul-17 05:54N 50°27' W 000°30'7 8.4
2018-Jul-17 05:02N 50°28' W 000°19'0 8.4
2018-Jul-17 04:59N 50°29' W 000°18'8 8.2
2018-Jul-17 04:03N 50°31' W 000°06'10 6.5
2018-Jul-17 02:32N 50°33' E 000°09'3 5.9
2018-Jul-17 02:05N 50°34' E 000°13'2 5.8
2018-Jul-17 01:42N 50°34' E 000°16'1 5.8
2018-Jul-17 01:30N 50°35' E 000°18'3 5.8
2018-Jul-17 01:00N 50°36' E 000°22'3 5.8
2018-Jul-17 00:30N 50°36' E 000°27'6 5.8
2018-Jul-16 23:30N 50°38' E 000°35'3 5.7
2018-Jul-16 23:00N 50°40' E 000°39'3 5.7
2018-Jul-16 22:30N 50°41' E 000°43'3 5.7
2018-Jul-16 22:00N 50°43' E 000°46'3 5.7
2018-Jul-16 21:30N 50°45' E 000°50'3 5.7
2018-Jul-16 21:00N 50°46' E 000°54'3 5.8
2018-Jul-16 20:30N 50°48' E 000°57'3 5.8
2018-Jul-16 20:00N 50°50' E 001°01'3 5.8
2018-Jul-16 19:30N 50°51' E 001°05'3 5.8
2018-Jul-16 18:59N 50°54' E 001°08'3 5.8
2018-Jul-16 18:29N 50°56' E 001°11'3 5.8
2018-Jul-16 17:56N 50°58' E 001°15'3 5.9
2018-Jul-16 17:30N 51°00' E 001°17'3 5.4
2018-Jul-16 16:57N 51°03' E 001°20'3 5.7
2018-Jul-16 16:26N 51°05' E 001°21'2 4.3
2018-Jul-16 16:00N 51°07' E 001°19'0 0.0
2018-Jul-16 15:30N 51°07' E 001°19'0 0.0
2018-Jul-16 15:01N 51°07' E 001°19'0 0.0
2018-Jul-16 14:30N 51°07' E 001°19'0 0.0
2018-Jul-16 13:43N 51°07' E 001°19'0 0.0
2018-Jul-16 13:31N 51°07' E 001°19'0 0.0
2018-Jul-16 12:57N 51°07' E 001°19'0 0.0
2018-Jul-16 12:28N 51°07' E 001°19'0 0.0
2018-Jul-16 11:58N 51°07' E 001°19'0 0.0
2018-Jul-16 11:27N 51°07' E 001°19'0 0.0
2018-Jul-16 10:58N 51°07' E 001°19'0 0.0
2018-Jul-16 10:28N 51°07' E 001°19'0 0.0
2018-Jul-16 09:59N 51°07' E 001°19'0 0.0
2018-Jul-16 09:22N 51°07' E 001°19'0 0.0
2018-Jul-16 09:00N 51°07' E 001°19'0 0.0
2018-Jul-16 08:29N 51°07' E 001°19'0 0.0
2018-Jul-16 08:01N 51°07' E 001°19'0 0.0
2018-Jul-16 07:23N 51°07' E 001°19'0 0.0
2018-Jul-16 06:58N 51°07' E 001°19'0 0.0
2018-Jul-16 06:19N 51°07' E 001°19'0 0.0
2018-Jul-16 05:57N 51°07' E 001°19'0 0.0
2018-Jul-16 05:26N 51°07' E 001°19'0 0.0
2018-Jul-16 04:58N 51°07' E 001°19'0 0.0
2018-Jul-16 04:29N 51°07' E 001°19'0 0.5
2018-Jul-16 04:00N 51°07' E 001°19'4 8.4
2018-Jul-16 03:30N 51°08' E 001°26'5 9.7
2018-Jul-16 03:00N 51°06' E 001°33'5 9.7
2018-Jul-16 02:30N 51°01' E 001°31'612.2
2018-Jul-16 02:00N 50°56' E 001°26'612.2
2018-Jul-16 01:30N 50°50' E 001°23'815.4
2018-Jul-16 01:00N 50°43' E 001°21'816.1
2018-Jul-16 00:30N 50°37' E 001°12'816.5
2018-Jul-16 00:00N 50°32' E 001°02'816.5
2018-Jul-15 23:30N 50°29' E 000°49'917.0
2018-Jul-15 23:00N 50°27' E 000°36'917.4
2018-Jul-15 22:30N 50°25' E 000°23'917.6
2018-Jul-15 21:59N 50°22' E 000°09'817.3
2018-Jul-15 21:30N 50°20' W 000°04'918.4
2018-Jul-15 21:00N 50°18' W 000°17'1020.6
2018-Jul-15 20:30N 50°15' W 000°33'1020.3
2018-Jul-15 20:00N 50°13' W 000°48'1019.7
2018-Jul-15 19:30N 50°10' W 001°03'1018.9
2018-Jul-15 19:00N 50°07' W 001°17'1617.7
2018-Jul-15 18:05N 50°03' W 001°42'2612.1
2018-Jul-15 15:54N 49°55' W 002°21'611.4
2018-Jul-15 15:24N 49°54' W 002°29'511.5
2018-Jul-15 15:00N 49°52' W 002°36'611.8
2018-Jul-15 14:30N 49°51' W 002°45'612.3
2018-Jul-15 14:00N 49°50' W 002°54'712.5
2018-Jul-15 13:26N 49°48' W 003°05'613.2
2018-Jul-15 13:00N 49°47' W 003°14'713.5
2018-Jul-15 12:30N 49°48' W 003°24'713.7
2018-Jul-15 12:00N 49°49' W 003°35'713.9
2018-Jul-15 11:29N 49°49' W 003°46'2314.0
2018-Jul-15 09:50N 49°50' W 004°22'1514.9
2018-Jul-15 08:47N 49°51' W 004°46'415.1
2018-Jul-15 08:30N 49°51' W 004°52'811.3
2018-Jul-15 07:46N 49°51' W 005°05'1115.3
2018-Jul-15 07:05N 49°51' W 005°22'116.5
2018-Jul-15 07:00N 49°51' W 005°24'815.7
2018-Jul-15 06:30N 49°52' W 005°36'14013.2
2018-Jul-14 19:53N 52°02' W 006°56'513.7
2018-Jul-14 19:30N 52°08' W 006°57'5 9.5
2018-Jul-14 18:58N 52°13' W 006°56'4 7.2
2018-Jul-14 18:26N 52°16' W 006°60'0 0.0
2018-Jul-14 05:46N 52°16' W 006°59'2 8.6
2018-Jul-14 05:30N 52°14' W 006°57'510.8
2018-Jul-14 05:00N 52°09' W 006°58'4 8.6
2018-Jul-14 04:29N 52°05' W 006°53'5 9.7
2018-Jul-14 04:00N 52°04' W 006°46'5 9.8
2018-Jul-14 03:30N 52°02' W 006°39'713.4
2018-Jul-14 03:00N 52°04' W 006°28'510.9
2018-Jul-14 02:30N 52°05' W 006°20'510.6
2018-Jul-14 02:00N 52°08' W 006°12'510.8
2018-Jul-14 01:30N 52°12' W 006°07'611.1
2018-Jul-14 01:00N 52°17' W 006°02'611.4
2018-Jul-14 00:30N 52°21' W 005°57'611.6
2018-Jul-13 23:57N 52°27' W 005°50'  

Dump ship's entire track history